Time;durP1;ratioP1;P1;durP2;ratioP2;P2;SDS_P1;SDS_P2;PMS_P1;PMS_P2;Temp;Humidity;BMP_temperature;BMP_pressure;BME280_temperature;BME280_humidity;BME280_pressure;Samples;Min_cycle;Max_cycle;Signal;HPM_P1;HPM_P2
2022/08/24 00:00:56;;;;;;;7.78;4.03;;;19.30;99.90;;;;;;5034068;28;20026;-75
2022/08/24 00:03:23;;;;;;;5.15;3.35;;;19.30;99.90;;;;;;5016210;28;20032;-75
2022/08/24 00:05:49;;;;;;;5.15;3.30;;;19.30;99.90;;;;;;5033820;28;20022;-75
2022/08/24 00:08:17;;;;;;;5.97;2.88;;;19.20;99.90;;;;;;5033910;28;20041;-75
2022/08/24 00:10:43;;;;;;;7.38;3.90;;;19.10;99.90;;;;;;5034680;28;20021;-75
2022/08/24 00:13:09;;;;;;;8.60;4.00;;;19.10;99.90;;;;;;5016091;28;20390;-75
2022/08/24 00:15:35;;;;;;;6.90;3.55;;;19.10;99.90;;;;;;5016155;28;20025;-75
2022/08/24 00:18:00;;;;;;;7.03;3.70;;;19.10;99.90;;;;;;5033930;28;20033;-75
2022/08/24 00:20:26;;;;;;;8.38;5.43;;;19.10;99.90;;;;;;5033629;28;20402;-75
2022/08/24 00:22:52;;;;;;;9.05;4.35;;;19.10;99.90;;;;;;5015821;28;20116;-75
2022/08/24 00:25:19;;;;;;;6.95;4.57;;;19.00;99.90;;;;;;5015755;28;20049;-75
2022/08/24 00:27:45;;;;;;;8.43;4.88;;;19.00;99.90;;;;;;5015574;28;20372;-75
2022/08/24 00:30:16;;;;;;;8.07;4.80;;;19.00;99.90;;;;;;5033573;28;20043;-75
2022/08/24 00:32:43;;;;;;;7.47;4.60;;;18.90;99.90;;;;;;5033517;28;20021;-75
2022/08/24 00:35:10;;;;;;;8.13;4.53;;;18.90;99.90;;;;;;5033974;28;20103;-75
2022/08/24 00:37:36;;;;;;;5.15;3.90;;;18.90;99.90;;;;;;5015680;28;20479;-75
2022/08/24 00:40:10;;;;;;;7.47;3.78;;;18.90;99.90;;;;;;5033697;28;20071;-75
2022/08/24 00:42:37;;;;;;;7.22;4.25;;;18.90;99.90;;;;;;5015668;28;20044;-75
2022/08/24 00:45:05;;;;;;;6.25;3.40;;;18.90;99.90;;;;;;5032537;28;20101;-75
2022/08/24 00:47:40;;;;;;;7.22;3.47;;;18.90;99.90;;;;;;5033311;28;20532;-75
2022/08/24 00:50:10;;;;;;;5.80;3.50;;;18.90;99.90;;;;;;5033363;28;20049;-75
2022/08/24 00:52:45;;;;;;;4.10;2.53;;;18.80;99.90;;;;;;5015509;28;20072;-75
2022/08/24 00:55:18;;;;;;;4.22;2.60;;;18.80;99.90;;;;;;5015574;28;20014;-75
2022/08/24 00:57:49;;;;;;;4.65;2.80;;;18.80;99.90;;;;;;5033584;28;20435;-75
2022/08/24 01:00:20;;;;;;;5.05;2.75;;;18.80;99.90;;;;;;5015508;28;20091;-75
2022/08/24 01:02:50;;;;;;;4.80;2.78;;;18.70;99.90;;;;;;5015466;28;20049;-75
2022/08/24 01:05:18;;;;;;;6.85;2.80;;;18.70;99.90;;;;;;5033173;28;20075;-75
2022/08/24 01:07:48;;;;;;;3.22;2.33;;;18.70;99.90;;;;;;5033493;28;20028;-75
2022/08/24 01:10:17;;;;;;;8.55;2.95;;;18.70;99.90;;;;;;5033150;28;20013;-75
2022/08/24 01:12:47;;;;;;;4.20;2.88;;;18.70;99.90;;;;;;5033031;28;20486;-75
2022/08/24 01:15:15;;;;;;;5.03;2.50;;;18.70;99.90;;;;;;5015375;28;20026;-75
2022/08/24 01:20:26;;;;;;;4.63;2.35;;;18.70;99.90;;;;;;5033386;28;20044;-75
2022/08/24 01:23:10;;;;;;;3.72;2.38;;;18.70;99.90;;;;;;5033266;28;20029;-75
2022/08/24 01:25:37;;;;;;;4.95;2.22;;;18.60;99.90;;;;;;5033280;28;20026;-75
2022/08/24 01:28:07;;;;;;;4.30;2.92;;;18.60;99.90;;;;;;5033016;28;20043;-75
2022/08/24 01:30:33;;;;;;;6.30;3.10;;;18.60;99.90;;;;;;5015563;28;20028;-75
2022/08/24 01:33:02;;;;;;;4.88;2.90;;;18.60;99.90;;;;;;5032966;28;20021;-75
2022/08/24 01:35:30;;;;;;;4.72;3.28;;;18.50;99.90;;;;;;5032898;28;20478;-75
2022/08/24 01:38:00;;;;;;;6.63;3.20;;;18.50;99.90;;;;;;5032908;28;20026;-75
2022/08/24 01:40:34;;;;;;;4.20;2.90;;;18.50;99.90;;;;;;5015221;28;20075;-75
2022/08/24 01:43:00;;;;;;;3.97;2.55;;;18.50;99.90;;;;;;5015230;28;20083;-75
2022/08/24 01:45:26;;;;;;;2.97;2.33;;;18.40;99.90;;;;;;5033017;28;20037;-75
2022/08/24 01:47:51;;;;;;;5.28;3.17;;;18.40;99.90;;;;;;5032809;28;20021;-75
2022/08/24 01:50:17;;;;;;;4.47;3.03;;;18.40;99.90;;;;;;5032949;28;20109;-75
2022/08/24 01:52:43;;;;;;;4.13;2.60;;;18.30;99.90;;;;;;5033263;28;20352;-75
2022/08/24 01:55:11;;;;;;;4.05;2.95;;;18.30;99.90;;;;;;5033096;28;20097;-75
2022/08/24 01:57:38;;;;;;;6.38;2.78;;;18.30;99.90;;;;;;5036353;28;20025;-75
2022/08/24 02:00:07;;;;;;;4.35;2.65;;;18.30;99.90;;;;;;5036588;28;20413;-75
2022/08/24 02:02:33;;;;;;;6.65;3.30;;;18.20;99.90;;;;;;5036131;28;20092;-75
2022/08/24 02:04:59;;;;;;;6.30;3.13;;;18.20;99.90;;;;;;5018377;28;20021;-75
2022/08/24 02:07:25;;;;;;;5.60;3.60;;;18.20;99.90;;;;;;5036212;28;20368;-75
2022/08/24 02:09:51;;;;;;;4.15;3.22;;;18.20;99.90;;;;;;5036124;28;20488;-75
2022/08/24 02:12:18;;;;;;;3.78;2.80;;;18.10;99.90;;;;;;5036493;28;20049;-75
2022/08/24 02:14:44;;;;;;;4.85;2.30;;;18.20;99.90;;;;;;5036085;28;20084;-75
2022/08/24 02:17:10;;;;;;;4.45;2.50;;;18.20;99.90;;;;;;5018110;28;20025;-75
2022/08/24 02:19:36;;;;;;;5.20;3.15;;;18.20;99.90;;;;;;5018116;28;20399;-75
2022/08/24 02:22:02;;;;;;;6.22;2.92;;;18.10;99.90;;;;;;5018111;28;20030;-75
2022/08/24 02:24:29;;;;;;;4.15;2.72;;;18.20;99.90;;;;;;5036126;28;20474;-75
2022/08/24 02:26:55;;;;;;;8.13;3.45;;;18.00;99.90;;;;;;5018057;28;20025;-75
2022/08/24 02:29:21;;;;;;;5.55;3.40;;;18.10;99.90;;;;;;5035758;28;20029;-75
2022/08/24 02:31:46;;;;;;;4.05;2.58;;;18.10;99.90;;;;;;5035712;28;20422;-75
2022/08/24 02:34:12;;;;;;;4.75;3.05;;;18.10;99.90;;;;;;5035444;28;20026;-75
2022/08/24 02:36:38;;;;;;;4.40;3.35;;;18.00;99.90;;;;;;5035680;28;20115;-75
2022/08/24 02:39:06;;;;;;;4.22;2.75;;;18.00;99.90;;;;;;5035608;28;20036;-75
2022/08/24 02:41:32;;;;;;;4.63;2.47;;;18.00;99.90;;;;;;5035607;28;20049;-75
2022/08/24 02:43:58;;;;;;;5.53;3.15;;;18.00;99.90;;;;;;5035424;28;20028;-75
2022/08/24 02:46:26;;;;;;;2.92;2.25;;;18.00;99.90;;;;;;5017774;28;20026;-75
2022/08/24 02:48:52;;;;;;;4.00;2.58;;;17.90;99.90;;;;;;5035510;28;20018;-75
2022/08/24 02:51:24;;;;;;;4.40;2.53;;;17.90;99.90;;;;;;5017667;28;20429;-75
2022/08/24 02:53:50;;;;;;;4.30;2.40;;;18.00;99.90;;;;;;5035158;28;20029;-75
2022/08/24 02:56:16;;;;;;;6.13;2.55;;;17.90;99.90;;;;;;5035869;28;20033;-75
2022/08/24 02:58:46;;;;;;;3.15;2.85;;;17.90;99.90;;;;;;5017448;28;20025;-75
2022/08/24 03:01:13;;;;;;;4.45;1.95;;;17.90;99.90;;;;;;5035202;28;20022;-75
2022/08/24 03:03:39;;;;;;;4.00;2.08;;;17.90;99.90;;;;;;5035161;28;20026;-75
2022/08/24 03:06:06;;;;;;;4.40;2.10;;;17.90;99.90;;;;;;5017414;28;20033;-75
2022/08/24 03:08:31;;;;;;;3.42;2.38;;;17.90;99.90;;;;;;5034979;28;20034;-75
2022/08/24 03:10:59;;;;;;;3.60;1.90;;;17.80;99.90;;;;;;5018196;28;20057;-75
2022/08/24 03:13:26;;;;;;;3.92;2.70;;;17.80;99.90;;;;;;5035194;28;20019;-75
2022/08/24 03:15:52;;;;;;;2.92;2.58;;;17.80;99.90;;;;;;5035268;28;20029;-75
2022/08/24 03:18:18;;;;;;;6.35;2.67;;;17.80;99.90;;;;;;5035183;28;20041;-75
2022/08/24 03:20:43;;;;;;;3.38;2.13;;;17.80;99.90;;;;;;5034685;28;20030;-75
2022/08/24 03:23:09;;;;;;;3.03;2.30;;;17.70;99.90;;;;;;5035169;28;20017;-75
2022/08/24 03:25:35;;;;;;;4.75;1.77;;;17.80;99.90;;;;;;5035042;28;20028;-75
2022/08/24 03:28:01;;;;;;;2.92;2.10;;;17.70;99.90;;;;;;5034935;28;20104;-75
2022/08/24 03:30:27;;;;;;;3.70;2.72;;;17.70;99.90;;;;;;5034881;28;20029;-75
2022/08/24 03:32:53;;;;;;;6.68;1.70;;;17.70;99.90;;;;;;5034574;28;20546;-75
2022/08/24 03:35:20;;;;;;;2.75;1.63;;;17.70;99.90;;;;;;5035227;28;20125;-75
2022/08/24 03:37:46;;;;;;;4.03;2.45;;;17.70;99.90;;;;;;5034781;28;20021;-75
2022/08/24 03:40:12;;;;;;;1.90;1.80;;;17.70;99.90;;;;;;5034415;28;20083;-75
2022/08/24 03:42:39;;;;;;;2.72;1.80;;;17.70;99.90;;;;;;5016660;28;20025;-75
2022/08/24 03:45:05;;;;;;;4.55;1.80;;;18.00;99.90;;;;;;5016839;28;20112;-75
2022/08/24 03:47:30;;;;;;;1.90;1.75;;;17.70;99.90;;;;;;5034596;28;20022;-75
2022/08/24 03:49:57;;;;;;;4.22;1.80;;;17.60;99.90;;;;;;5034554;28;20497;-75
2022/08/24 03:52:22;;;;;;;3.92;1.88;;;17.60;99.90;;;;;;5034589;28;20021;-75
2022/08/24 03:54:48;;;;;;;3.38;2.08;;;17.60;99.90;;;;;;5034390;28;20537;-75
2022/08/24 03:57:14;;;;;;;3.55;1.95;;;17.60;99.90;;;;;;5016442;28;20037;-75
2022/08/24 03:59:39;;;;;;;4.20;2.15;;;17.50;99.90;;;;;;5016358;28;20419;-75
2022/08/24 04:02:05;;;;;;;2.35;1.67;;;17.60;99.90;;;;;;5034014;28;20074;-75
2022/08/24 04:04:31;;;;;;;2.60;1.75;;;17.50;99.90;;;;;;5034025;28;20104;-75
2022/08/24 04:06:58;;;;;;;3.97;2.33;;;17.60;99.90;;;;;;5016164;28;20033;-75
2022/08/24 04:09:23;;;;;;;2.95;2.20;;;17.50;99.90;;;;;;5033922;28;20033;-75
2022/08/24 04:11:50;;;;;;;2.35;1.80;;;17.50;99.90;;;;;;5016156;28;20025;-75
2022/08/24 04:14:16;;;;;;;3.05;2.40;;;17.40;99.90;;;;;;5016067;28;20084;-75
2022/08/24 04:16:44;;;;;;;4.07;2.30;;;17.50;99.90;;;;;;5033832;28;20033;-76
2022/08/24 04:19:10;;;;;;;7.20;2.42;;;17.50;99.90;;;;;;5032925;28;20056;-75
2022/08/24 04:21:36;;;;;;;5.55;2.95;;;17.50;99.90;;;;;;5015974;28;20406;-75
2022/08/24 04:24:03;;;;;;;8.20;3.88;;;17.50;99.90;;;;;;5033577;28;20026;-75
2022/08/24 04:26:30;;;;;;;6.53;4.53;;;17.50;99.90;;;;;;5033608;28;20025;-75
2022/08/24 04:28:56;;;;;;;8.48;5.00;;;17.50;99.90;;;;;;5033684;28;20017;-75
2022/08/24 04:31:22;;;;;;;9.40;5.97;;;17.50;99.90;;;;;;5033497;28;20065;-75
2022/08/24 04:33:48;;;;;;;10.85;6.60;;;17.50;99.90;;;;;;5015811;28;20108;-75
2022/08/24 04:36:16;;;;;;;11.90;6.43;;;17.50;99.90;;;;;;5033533;28;20037;-75
2022/08/24 04:38:42;;;;;;;10.52;7.05;;;17.40;99.90;;;;;;5015877;28;20482;-75
2022/08/24 04:41:13;;;;;;;12.85;6.75;;;17.40;99.90;;;;;;5034047;28;20028;-75
2022/08/24 04:43:43;;;;;;;12.35;7.90;;;17.50;99.90;;;;;;5033403;28;20025;-75
2022/08/24 04:46:10;;;;;;;14.20;8.10;;;17.50;99.90;;;;;;5033644;28;20021;-75
2022/08/24 04:48:36;;;;;;;11.20;7.18;;;17.50;99.90;;;;;;5015536;28;20486;-75
2022/08/24 04:51:04;;;;;;;8.75;6.13;;;17.40;99.90;;;;;;5033405;28;20048;-75
2022/08/24 04:53:31;;;;;;;13.85;7.20;;;17.40;99.90;;;;;;5033479;28;20028;-75
2022/08/24 04:55:57;;;;;;;12.00;6.90;;;17.50;99.90;;;;;;5033858;28;20030;-75
2022/08/24 04:58:23;;;;;;;7.82;5.80;;;17.50;99.90;;;;;;5033514;28;20022;-75
2022/08/24 05:00:48;;;;;;;11.88;6.55;;;17.50;99.90;;;;;;5015567;28;20033;-75
2022/08/24 05:03:14;;;;;;;9.93;6.40;;;17.50;99.90;;;;;;5033205;28;20029;-75
2022/08/24 05:05:45;;;;;;;11.73;7.18;;;17.50;99.90;;;;;;5033120;28;20030;-75
2022/08/24 05:08:12;;;;;;;10.27;6.55;;;17.50;99.90;;;;;;5033778;28;20071;-75
2022/08/24 05:10:42;;;;;;;8.45;5.82;;;17.60;99.90;;;;;;5033125;28;20057;-75
2022/08/24 05:13:08;;;;;;;8.73;6.60;;;17.60;99.90;;;;;;5015667;28;20022;-75
2022/08/24 05:15:34;;;;;;;9.30;5.95;;;17.70;99.90;;;;;;5015406;28;20487;-75
2022/08/24 05:18:01;;;;;;;9.15;5.10;;;17.70;99.90;;;;;;5033718;28;20475;-75
2022/08/24 05:20:27;;;;;;;8.57;5.32;;;17.80;99.90;;;;;;5032969;28;20037;-75
2022/08/24 05:22:53;;;;;;;8.20;5.28;;;17.90;99.90;;;;;;5032948;28;20029;-74
2022/08/24 05:25:20;;;;;;;8.00;5.63;;;17.90;99.90;;;;;;5033250;28;20022;-75
2022/08/24 05:27:46;;;;;;;11.90;5.63;;;18.00;99.90;;;;;;5015326;28;20099;-75
2022/08/24 05:30:12;;;;;;;9.85;5.53;;;18.30;99.90;;;;;;5015707;28;20084;-75
2022/08/24 05:32:38;;;;;;;6.97;4.68;;;18.10;99.90;;;;;;5036697;28;20024;-75
2022/08/24 05:35:05;;;;;;;7.18;4.53;;;18.50;99.90;;;;;;5019065;28;20075;-75
2022/08/24 05:37:34;;;;;;;7.65;3.72;;;18.30;99.90;;;;;;5036648;28;20069;-74
2022/08/24 05:40:04;;;;;;;5.60;3.63;;;18.30;99.90;;;;;;5019107;28;20018;-74
2022/08/24 05:42:30;;;;;;;5.32;3.33;;;18.30;99.90;;;;;;5036600;28;20045;-74
2022/08/24 05:44:56;;;;;;;5.75;3.75;;;18.50;99.90;;;;;;5018781;28;20032;-72
2022/08/24 05:47:21;;;;;;;7.28;4.60;;;18.60;99.90;;;;;;5036894;28;20033;-75
2022/08/24 05:49:51;;;;;;;9.55;4.75;;;18.50;99.90;;;;;;5018486;28;20077;-75
2022/08/24 05:52:17;;;;;;;8.60;4.90;;;18.80;99.90;;;;;;5018531;28;20017;-75
2022/08/24 05:54:43;;;;;;;10.50;5.35;;;18.90;99.90;;;;;;5036491;28;20439;-74
2022/08/24 05:57:08;;;;;;;9.13;5.30;;;19.00;99.90;;;;;;5018627;28;20022;-75
2022/08/24 05:59:34;;;;;;;11.32;6.78;;;19.10;99.90;;;;;;5018751;28;20022;-75
2022/08/24 06:02:00;;;;;;;10.80;6.25;;;19.20;99.90;;;;;;5036305;28;20021;-75
2022/08/24 06:04:26;;;;;;;10.10;6.90;;;19.30;99.90;;;;;;5037044;28;20035;-74
2022/08/24 06:06:52;;;;;;;11.73;7.13;;;19.50;99.90;;;;;;5036234;28;20025;-74
2022/08/24 06:09:18;;;;;;;11.05;7.07;;;19.60;99.90;;;;;;5036170;28;20382;-75
2022/08/24 06:11:44;;;;;;;11.40;7.32;;;19.70;99.90;;;;;;5036142;28;20026;-75
2022/08/24 06:14:13;;;;;;;10.27;6.93;;;19.80;99.90;;;;;;5018626;28;20370;-74
2022/08/24 06:16:43;;;;;;;13.95;7.00;;;19.90;99.90;;;;;;5035943;28;20029;-74
2022/08/24 06:19:10;;;;;;;14.10;7.20;;;20.00;99.90;;;;;;5018248;28;20095;-74
2022/08/24 06:21:36;;;;;;;12.55;7.22;;;20.10;99.90;;;;;;5035855;28;20037;-74
2022/08/24 06:24:03;;;;;;;10.60;6.75;;;20.20;99.90;;;;;;5035858;28;20022;-74
2022/08/24 06:29:13;;;;;;;11.63;7.20;;;20.50;99.90;;;;;;5036683;28;20391;-74
2022/08/24 06:31:42;;;;;;;14.70;7.93;;;20.60;99.90;;;;;;5018060;28;20017;-74
2022/08/24 06:34:08;;;;;;;;;;;20.80;99.90;;;;;;5036066;28;20395;-74
2022/08/24 06:36:34;;;;;;;15.40;8.98;;;20.90;99.90;;;;;;5035728;28;20280;-74
2022/08/24 06:39:00;;;;;;;14.93;9.38;;;21.10;99.90;;;;;;5035607;28;20025;-74
2022/08/24 06:41:25;;;;;;;15.30;9.77;;;21.20;99.90;;;;;;5017377;28;20029;-74
2022/08/24 06:43:51;;;;;;;22.10;8.50;;;21.30;99.90;;;;;;5017119;28;20108;-74
2022/08/24 06:46:17;;;;;;;14.15;8.88;;;21.30;99.90;;;;;;5035663;28;20022;-74
2022/08/24 06:48:43;;;;;;;17.48;9.10;;;21.40;99.90;;;;;;5035393;28;20026;-74
2022/08/24 06:51:13;;;;;;;15.77;9.40;;;21.50;99.90;;;;;;5017655;28;20029;-74
2022/08/24 06:53:39;;;;;;;16.92;9.80;;;21.70;99.90;;;;;;5035886;28;20030;-74
2022/08/24 06:56:05;;;;;;;13.18;8.93;;;21.80;99.90;;;;;;5017580;28;20067;-74
2022/08/24 06:58:31;;;;;;;17.40;10.13;;;21.80;99.90;;;;;;5017484;28;20397;-74
2022/08/24 07:00:58;;;;;;;18.30;10.88;;;21.90;99.90;;;;;;5035777;28;20029;-74
2022/08/24 07:03:24;;;;;;;15.82;9.93;;;22.00;99.90;;;;;;5017617;28;20057;-75
2022/08/24 07:05:56;;;;;;;13.02;9.05;;;22.10;99.90;;;;;;5035322;28;20104;-74
2022/08/24 07:08:22;;;;;;;17.63;8.75;;;22.20;99.90;;;;;;5035367;28;20030;-74
2022/08/24 07:10:50;;;;;;;11.02;7.88;;;22.40;99.90;;;;;;5035604;28;20104;-74
2022/08/24 07:13:15;;;;;;;13.93;8.32;;;22.50;99.90;;;;;;5034927;28;20025;-74
2022/08/24 07:15:42;;;;;;;11.70;7.43;;;22.50;99.90;;;;;;5017084;28;20479;-74
2022/08/24 07:18:10;;;;;;;12.82;8.15;;;22.70;99.90;;;;;;5043693;23;20052;-76
2022/08/24 07:20:36;;;;;;;11.18;7.72;;;22.90;99.90;;;;;;5035184;28;20412;-76
2022/08/24 07:23:04;;;;;;;11.55;7.30;;;23.00;99.90;;;;;;5033431;28;20532;-76
2022/08/24 07:25:30;;;;;;;10.50;5.90;;;23.00;99.90;;;;;;5033482;28;20026;-76
2022/08/24 07:27:59;;;;;;;12.02;8.00;;;23.20;99.90;;;;;;5034741;28;20033;-76
2022/08/24 07:30:26;;;;;;;14.75;7.53;;;23.30;99.90;;;;;;5034654;28;20364;-76
2022/08/24 07:32:52;;;;;;;14.05;6.93;;;23.40;99.90;;;;;;5034501;28;20029;-76
2022/08/24 07:35:18;;;;;;;10.38;6.95;;;23.50;99.90;;;;;;5034618;28;20026;-76
2022/08/24 07:37:43;;;;;;;9.73;5.63;;;23.60;99.90;;;;;;5034893;28;20026;-76
2022/08/24 07:40:10;;;;;;;11.02;5.68;;;23.60;99.90;;;;;;5034699;28;20021;-76
2022/08/24 07:42:35;;;;;;;8.43;6.00;;;23.70;99.90;;;;;;5034369;28;20018;-76
2022/08/24 07:45:02;;;;;;;13.07;6.85;;;23.80;99.90;;;;;;5034886;28;20029;-76
2022/08/24 07:47:27;;;;;;;15.80;6.35;;;23.90;99.90;;;;;;5034600;28;20034;-77
2022/08/24 07:49:53;;;;;;;8.07;5.43;;;24.00;99.90;;;;;;5034321;28;20496;-76
2022/08/24 07:52:18;;;;;;;14.15;6.20;;;24.10;99.90;;;;;;5034188;28;20049;-76
2022/08/24 07:54:44;;;;;;;11.05;6.45;;;24.20;99.90;;;;;;5034330;28;20016;-76
2022/08/24 07:57:09;;;;;;;9.80;5.13;;;24.30;99.90;;;;;;5034219;28;20545;-76
2022/08/24 07:59:36;;;;;;;10.05;5.30;;;24.50;99.90;;;;;;5034196;28;20394;-76
2022/08/24 08:02:02;;;;;;;10.32;4.97;;;24.50;99.90;;;;;;5034266;28;20029;-76
2022/08/24 08:04:28;;;;;;;13.48;6.93;;;24.60;99.90;;;;;;5033153;28;20084;-76
2022/08/24 08:06:54;;;;;;;5.53;4.30;;;24.80;99.90;;;;;;5034685;28;20413;-77
2022/08/24 08:09:20;;;;;;;12.32;5.05;;;24.80;99.90;;;;;;5032760;28;20026;-77
2022/08/24 08:11:45;;;;;;;8.15;4.50;;;24.90;99.90;;;;;;5034142;28;20084;-77
2022/08/24 08:14:12;;;;;;;5.10;3.97;;;25.00;99.90;;;;;;5034190;28;20025;-77
2022/08/24 08:16:38;;;;;;;9.40;4.95;;;25.10;99.90;;;;;;5034011;28;20029;-76
2022/08/24 08:19:04;;;;;;;10.45;5.90;;;25.20;99.90;;;;;;5034133;28;20537;-77
2022/08/24 08:24:19;;;;;;;8.63;4.65;;;25.30;99.90;;;;;;5033547;28;20120;-77
2022/08/24 08:26:49;;;;;;;7.60;3.88;;;25.20;99.90;;;;;;5032606;28;20049;-77
2022/08/24 08:29:17;;;;;;;11.27;5.10;;;25.30;99.90;;;;;;5034288;28;20096;-77
2022/08/24 08:31:43;;;;;;;10.75;5.88;;;25.40;99.90;;;;;;5033845;28;20076;-77
2022/08/24 08:34:12;;;;;;;9.25;4.80;;;25.50;99.90;;;;;;5032406;28;20017;-77
2022/08/24 08:36:41;;;;;;;12.73;6.32;;;25.50;99.90;;;;;;5033578;28;20108;-77
2022/08/24 08:39:09;;;;;;;10.95;5.25;;;25.40;99.90;;;;;;5032178;28;20024;-77
2022/08/24 08:41:57;;;;;;;10.45;4.43;;;25.40;99.90;;;;;;5032539;28;20029;-77
2022/08/24 08:44:44;;;;;;;5.57;2.60;;;25.40;99.90;;;;;;5032199;28;20092;-77
2022/08/24 08:47:42;;;;;;;3.17;1.70;;;25.60;99.90;;;;;;5032280;28;20029;-77
2022/08/24 08:50:13;;;;;;;3.38;2.72;;;25.80;99.90;;;;;;5032165;28;20025;-78
2022/08/24 08:53:14;;;;;;;8.23;2.28;;;25.90;99.90;;;;;;5033401;28;20035;-78
2022/08/24 08:56:00;;;;;;;6.95;2.22;;;26.00;99.90;;;;;;5022741;28;20034;-77
2022/08/24 08:59:00;;;;;;;3.92;1.63;;;26.00;99.90;;;;;;5033162;28;20044;-78
2022/08/24 09:01:40;;;;;;;2.72;1.83;;;26.10;99.90;;;;;;5033910;28;20488;-77
2022/08/24 09:04:53;;;;;;;3.50;2.00;;;26.30;99.90;;;;;;5032040;28;20098;-77
2022/08/24 09:07:40;;;;;;;3.55;1.92;;;26.40;99.90;;;;;;5029916;28;20513;-78
2022/08/24 09:10:22;;;;;;;6.30;2.45;;;26.50;99.90;;;;;;5037764;28;20176;-78
2022/08/24 09:13:03;;;;;;;5.93;3.42;;;26.60;99.90;;;;;;5038253;28;20032;-78
2022/08/24 09:15:52;;;;;;;8.75;3.20;;;26.60;99.90;;;;;;5038765;28;20029;-78
2022/08/24 09:18:31;;;;;;;5.43;2.55;;;26.60;99.90;;;;;;5039091;28;20045;-78
2022/08/24 09:21:18;;;;;;;3.92;1.75;;;26.60;99.90;;;;;;5036724;28;20036;-78
2022/08/24 09:24:10;;;;;;;2.97;2.17;;;26.80;99.90;;;;;;5036848;28;20402;-78
2022/08/24 09:27:04;;;;;;;4.75;2.22;;;27.00;99.90;;;;;;5037273;28;20025;-79
2022/08/24 09:29:54;;;;;;;4.25;1.15;;;27.10;99.90;;;;;;5037199;28;20060;-78
2022/08/24 09:32:33;;;;;;;4.13;1.40;;;27.20;99.90;;;;;;5036776;28;20029;-78
2022/08/24 09:35:00;;;;;;;;;;;27.20;99.90;;;;;;5039267;28;20021;-79
2022/08/24 09:37:37;;;;;;;2.05;0.88;;;27.10;99.90;;;;;;5036944;28;19911;-78
2022/08/24 09:40:16;;;;;;;5.10;1.33;;;27.20;99.90;;;;;;5038801;28;20443;-79
2022/08/24 09:42:42;;;;;;;6.43;0.63;;;27.30;99.90;;;;;;5036883;28;20033;-78
2022/08/24 09:45:32;;;;;;;3.03;0.40;;;27.30;99.90;;;;;;5037960;28;20490;-79
2022/08/24 09:48:25;;;;;;;0.90;0.10;;;27.40;99.90;;;;;;5037209;28;20040;-79
2022/08/24 09:51:18;;;;;;;1.85;0.10;;;27.50;99.90;;;;;;5036462;28;20033;-78
2022/08/24 09:54:03;;;;;;;0.68;0.10;;;27.50;99.90;;;;;;5036489;28;20108;-78
2022/08/24 09:56:49;;;;;;;0.22;0.00;;;27.50;99.90;;;;;;5038341;28;20018;-78
2022/08/24 09:59:37;;;;;;;1.15;0.30;;;27.50;99.90;;;;;;5037794;28;20021;-78
2022/08/24 10:02:24;;;;;;;0.57;0.10;;;27.50;99.90;;;;;;5037733;28;20501;-78
2022/08/24 10:05:07;;;;;;;2.20;0.13;;;27.60;99.90;;;;;;5037974;28;20025;-78
2022/08/24 10:08:02;;;;;;;0.28;0.00;;;27.70;99.90;;;;;;5036674;28;20083;-78
2022/08/24 10:10:49;;;;;;;2.53;0.08;;;27.80;99.90;;;;;;5037117;28;20017;-78
2022/08/24 10:13:31;;;;;;;0.45;0.00;;;27.90;99.90;;;;;;5037306;28;20080;-79
2022/08/24 10:16:12;;;;;;;1.58;0.00;;;28.10;99.90;;;;;;5036492;28;20032;-78
2022/08/24 10:19:13;;;;;;;2.45;0.10;;;28.20;99.90;;;;;;5037590;28;20386;-78
2022/08/24 10:21:38;;;;;;;0.98;0.10;;;28.30;99.90;;;;;;5037578;28;20493;-78
2022/08/24 10:24:13;;;;;;;1.48;0.10;;;28.50;99.90;;;;;;5037173;28;20026;-78
2022/08/24 10:26:48;;;;;;;1.58;0.20;;;28.30;99.90;;;;;;5037617;28;20088;-78
2022/08/24 10:29:42;;;;;;;2.13;0.25;;;28.30;99.90;;;;;;5049431;28;20120;-81
2022/08/24 10:32:32;;;;;;;2.25;0.20;;;28.40;99.90;;;;;;5053954;28;20025;-81
2022/08/24 10:35:12;;;;;;;3.70;0.70;;;28.50;99.50;;;;;;5055167;28;20032;-82
2022/08/24 10:39:39;;;;;;;0.10;0.00;;;28.60;99.90;;;;;;5055145;28;20057;-81
2022/08/24 10:41:17;;;;;;;1.73;0.20;;;28.90;99.80;;;;;;5054324;28;20025;-81
2022/08/24 10:44:04;;;;;;;1.38;0.10;;;29.10;97.70;;;;;;5054344;28;20029;-81
2022/08/24 10:46:44;;;;;;;0.40;0.15;;;29.30;96.90;;;;;;5054572;28;20025;-81
2022/08/24 10:49:24;;;;;;;0.63;0.20;;;29.40;97.10;;;;;;5053310;28;20018;-81
2022/08/24 10:52:09;;;;;;;0.77;0.10;;;29.20;96.70;;;;;;5053301;28;20052;-81
2022/08/24 10:54:35;;;;;;;1.13;0.10;;;29.30;96.60;;;;;;5054183;28;20025;-82
2022/08/24 10:57:10;;;;;;;1.65;0.10;;;29.60;97.50;;;;;;5054956;28;20081;-81
2022/08/24 11:00:04;;;;;;;0.20;0.00;;;29.90;96.30;;;;;;5055050;28;20038;-81
2022/08/24 11:02:35;;;;;;;0.10;0.00;;;30.10;94.80;;;;;;5053984;28;20047;-81
2022/08/24 11:05:06;;;;;;;0.20;0.00;;;30.30;92.50;;;;;;5054162;28;20030;-82
2022/08/24 11:07:33;;;;;;;0.17;0.00;;;30.40;92.40;;;;;;5053129;28;20025;-81
2022/08/24 11:10:03;;;;;;;0.10;0.00;;;30.30;93.30;;;;;;5053232;28;20096;-83
2022/08/24 11:12:34;;;;;;;1.33;0.10;;;30.50;93.70;;;;;;5053711;28;20014;-82
2022/08/24 11:15:17;;;;;;;0.32;0.00;;;30.40;91.90;;;;;;5052872;28;20103;-81
2022/08/24 11:18:12;;;;;;;0.52;0.10;;;30.20;92.20;;;;;;5053449;28;20048;-82
2022/08/24 11:20:46;;;;;;;3.55;0.30;;;29.90;93.00;;;;;;5040084;28;20037;-82
2022/08/24 11:23:22;;;;;;;0.80;0.00;;;29.70;92.60;;;;;;5052079;28;20410;-81
2022/08/24 11:26:11;;;;;;;0.10;0.00;;;29.50;92.90;;;;;;5053411;28;20025;-80
2022/08/24 11:28:52;;;;;;;0.00;0.00;;;29.20;93.10;;;;;;5039606;28;20028;-79
2022/08/24 11:31:30;;;;;;;1.75;0.00;;;29.10;94.60;;;;;;5040038;28;20025;-79
2022/08/24 11:34:02;;;;;;;1.88;0.00;;;29.10;95.40;;;;;;5040200;28;20017;-81
2022/08/24 11:36:33;;;;;;;3.20;0.10;;;29.20;94.10;;;;;;5047519;28;20513;-78
2022/08/24 11:39:31;;;;;;;0.15;0.00;;;29.20;95.00;;;;;;5036565;28;20049;-78
2022/08/24 11:42:09;;;;;;;3.05;0.10;;;29.40;93.90;;;;;;5036848;28;20543;-78
2022/08/24 11:44:40;;;;;;;;;;;29.70;92.50;;;;;;5035525;28;20025;-78
2022/08/24 11:48:02;;;;;;;0.30;0.10;;;30.10;92.40;;;;;;5035355;28;19909;-78
2022/08/24 11:50:32;;;;;;;0.45;0.10;;;30.60;91.90;;;;;;4957141;29;20191;-78
2022/08/24 11:53:36;;;;;;;0.68;0.10;;;31.00;90.90;;;;;;5018880;28;20038;-78
2022/08/24 11:56:01;;;;;;;2.33;0.45;;;31.30;87.50;;;;;;5036649;28;20036;-78
2022/08/24 11:58:48;;;;;;;0.22;0.00;;;31.70;89.90;;;;;;5037206;28;20104;-78
2022/08/24 12:01:43;;;;;;;0.30;0.00;;;31.50;86.60;;;;;;5037346;28;20068;-78
2022/08/24 12:04:15;;;;;;;0.73;0.00;;;31.80;87.70;;;;;;5037112;28;20425;-82
2022/08/24 12:07:32;;;;;;;0.10;0.00;;;32.30;88.30;;;;;;5036769;28;20021;-78
2022/08/24 12:10:08;;;;;;;0.55;0.00;;;32.40;83.40;;;;;;5000404;28;20033;-76
2022/08/24 12:12:45;;;;;;;0.80;0.00;;;32.40;82.50;;;;;;5034233;28;20497;-75
2022/08/24 12:15:16;;;;;;;0.10;0.00;;;32.10;80.80;;;;;;5037487;28;20013;-80
2022/08/24 12:18:01;;;;;;;0.25;0.00;;;31.90;78.80;;;;;;5035191;28;20041;-76
2022/08/24 12:20:41;;;;;;;0.00;0.00;;;31.70;81.70;;;;;;5038858;28;20486;-80
2022/08/24 12:23:42;;;;;;;0.20;0.00;;;31.70;78.70;;;;;;5038988;28;20509;-80
2022/08/24 12:26:35;;;;;;;0.10;0.00;;;31.50;79.90;;;;;;5037638;28;20038;-81
2022/08/24 12:29:29;;;;;;;0.43;0.00;;;31.70;81.30;;;;;;5050287;28;20018;-79
2022/08/24 12:32:04;;;;;;;0.43;0.00;;;32.00;76.30;;;;;;5048721;28;20021;-79
2022/08/24 12:34:40;;;;;;;0.38;0.00;;;32.40;77.60;;;;;;5049037;28;20352;-78
2022/08/24 12:37:13;;;;;;;0.10;0.00;;;32.80;78.90;;;;;;5049669;28;20421;-79
2022/08/24 12:39:48;;;;;;;0.25;0.03;;;33.50;75.30;;;;;;5048094;28;20026;-79
2022/08/24 12:42:37;;;;;;;1.63;0.00;;;33.60;74.50;;;;;;5048256;28;20029;-79
2022/08/24 12:45:12;;;;;;;0.00;0.00;;;33.80;72.40;;;;;;5047862;28;20030;-79
2022/08/24 12:48:06;;;;;;;0.88;0.10;;;33.60;74.00;;;;;;5047295;28;20044;-79
2022/08/24 12:50:45;;;;;;;2.28;0.57;;;33.30;73.20;;;;;;5049319;28;20031;-79
2022/08/24 12:53:46;;;;;;;0.10;0.00;;;33.30;73.20;;;;;;5047087;28;20028;-79
2022/08/24 12:56:38;;;;;;;2.20;0.00;;;33.20;75.60;;;;;;5050070;28;20044;-80
2022/08/24 12:59:23;;;;;;;0.38;0.00;;;33.10;71.10;;;;;;5049179;28;20026;-79
2022/08/24 13:02:02;;;;;;;0.30;0.00;;;32.80;73.80;;;;;;5047956;28;20036;-77
2022/08/24 13:04:47;;;;;;;0.20;0.00;;;32.50;71.80;;;;;;5032128;28;20442;-76
2022/08/24 13:07:18;;;;;;;0.22;0.00;;;32.60;73.20;;;;;;5033284;28;20095;-75
2022/08/24 13:09:52;;;;;;;1.98;0.00;;;32.50;72.00;;;;;;5031916;28;20478;-75
2022/08/24 13:12:36;;;;;;;1.02;0.00;;;32.90;75.30;;;;;;5031915;28;20133;-75
2022/08/24 13:15:33;;;;;;;0.20;0.00;;;33.60;72.50;;;;;;5035746;28;20025;-80
2022/08/24 13:18:20;;;;;;;1.05;0.00;;;34.00;69.40;;;;;;5037767;28;20164;-77
2022/08/24 13:20:48;;;;;;;3.33;0.35;;;33.60;66.90;;;;;;5036528;28;20033;-80